Time;durP1;ratioP1;P1;durP2;ratioP2;P2;SDS_P1;SDS_P2;PMS_P1;PMS_P2;Temp;Humidity;BMP_temperature;BMP_pressure;BME280_temperature;BME280_humidity;BME280_pressure;Samples;Min_cycle;Max_cycle;Signal;HPM_P1;HPM_P2
2021/10/13 00:00:15;;;;;;;2.10;2.00;;;11.80;44.80;;;;;;10448702;28;20244;-75
2021/10/13 00:05:18;;;;;;;2.20;2.10;;;11.90;45.30;;;;;;10442270;28;20630;-74
2021/10/13 00:10:21;;;;;;;2.73;2.20;;;11.90;44.70;;;;;;10452792;28;20233;-74
2021/10/13 00:15:26;;;;;;;2.17;2.07;;;12.00;44.50;;;;;;10444577;28;20229;-74
2021/10/13 00:20:29;;;;;;;2.30;2.20;;;11.90;44.60;;;;;;10453918;28;20577;-74
2021/10/13 00:25:32;;;;;;;2.30;2.10;;;11.90;44.30;;;;;;10455962;28;20229;-74
2021/10/13 00:30:37;;;;;;;2.10;2.00;;;11.90;44.20;;;;;;10448431;28;20239;-74
2021/10/13 00:35:40;;;;;;;3.17;2.50;;;12.00;44.50;;;;;;10439891;28;20236;-74
2021/10/13 00:40:43;;;;;;;2.73;2.53;;;12.00;44.10;;;;;;10443187;28;20221;-74
2021/10/13 00:45:49;;;;;;;3.43;2.60;;;12.00;44.70;;;;;;10442599;28;20228;-74
2021/10/13 00:50:55;;;;;;;2.80;2.60;;;11.90;44.30;;;;;;10446562;28;20217;-75
2021/10/13 00:55:58;;;;;;;2.90;2.70;;;11.90;44.30;;;;;;10446366;28;20229;-74
2021/10/13 01:01:22;;;;;;;2.80;2.60;;;11.80;43.90;;;;;;10439535;28;20599;-75
2021/10/13 01:06:34;;;;;;;2.80;2.60;;;11.70;44.70;;;;;;10457131;28;20235;-74
2021/10/13 01:11:50;;;;;;;3.03;2.83;;;11.70;44.60;;;;;;10453633;28;20217;-75
2021/10/13 01:17:03;;;;;;;2.80;2.60;;;11.70;44.60;;;;;;10454289;28;20228;-74
2021/10/13 01:22:25;;;;;;;2.80;2.60;;;11.80;44.70;;;;;;10443962;28;20213;-75
2021/10/13 01:27:53;;;;;;;2.60;2.50;;;11.70;44.80;;;;;;10442235;28;20312;-75
2021/10/13 01:33:01;;;;;;;3.93;2.73;;;11.80;45.00;;;;;;10447829;28;20239;-75
2021/10/13 01:38:08;;;;;;;3.53;2.53;;;11.80;44.30;;;;;;10450309;28;20252;-75
2021/10/13 01:43:15;;;;;;;3.10;2.90;;;11.80;44.00;;;;;;10447735;28;20236;-75
2021/10/13 01:48:19;;;;;;;3.13;2.93;;;11.80;43.90;;;;;;10447669;28;20315;-75
2021/10/13 01:53:25;;;;;;;2.93;2.63;;;11.80;43.80;;;;;;10449291;28;20279;-75
2021/10/13 01:58:31;;;;;;;3.13;2.83;;;11.80;43.70;;;;;;10444093;28;20232;-74
2021/10/13 02:03:35;;;;;;;3.33;3.10;;;11.80;43.80;;;;;;10443057;28;20229;-75
2021/10/13 02:08:40;;;;;;;3.03;2.73;;;11.80;43.60;;;;;;10454423;28;20334;-75
2021/10/13 02:13:45;;;;;;;3.07;2.87;;;11.80;43.60;;;;;;10443456;28;20239;-75
2021/10/13 02:18:49;;;;;;;3.27;2.97;;;11.80;43.40;;;;;;10450637;28;20312;-75
2021/10/13 02:23:55;;;;;;;3.33;3.03;;;11.80;43.40;;;;;;10452637;28;20224;-75
2021/10/13 02:29:05;;;;;;;2.90;2.70;;;11.80;43.30;;;;;;10457039;28;20229;-75
2021/10/13 02:34:08;;;;;;;3.60;3.30;;;11.80;43.30;;;;;;10440595;28;20233;-75
2021/10/13 02:39:11;;;;;;;3.17;2.97;;;11.80;43.60;;;;;;10443179;28;20224;-75
2021/10/13 02:44:16;;;;;;;3.80;3.17;;;11.80;42.60;;;;;;10441744;28;20231;-75
2021/10/13 02:49:25;;;;;;;3.60;3.30;;;11.70;42.30;;;;;;10443823;28;20239;-75
2021/10/13 02:54:36;;;;;;;3.40;3.20;;;11.60;42.70;;;;;;10440187;28;20701;-75
2021/10/13 02:59:43;;;;;;;2.83;2.60;;;11.60;42.50;;;;;;10446628;28;20236;-75
2021/10/13 03:04:51;;;;;;;3.23;3.00;;;11.50;42.50;;;;;;10444447;28;20228;-75
2021/10/13 03:09:57;;;;;;;3.70;3.40;;;11.50;42.40;;;;;;10449427;28;20248;-74
2021/10/13 03:15:02;;;;;;;2.17;2.07;;;11.40;42.20;;;;;;10454771;28;20566;-75
2021/10/13 03:20:06;;;;;;;4.00;3.53;;;11.40;42.20;;;;;;10449603;28;20223;-75
2021/10/13 03:25:10;;;;;;;3.90;3.20;;;11.40;42.00;;;;;;10443237;28;20225;-74
2021/10/13 03:30:14;;;;;;;3.67;3.33;;;11.30;41.80;;;;;;10456005;28;20984;-75
2021/10/13 03:35:22;;;;;;;4.10;3.80;;;11.20;42.50;;;;;;10445111;28;20232;-74
2021/10/13 03:40:26;;;;;;;3.80;3.50;;;11.10;41.40;;;;;;10449551;28;20249;-75
2021/10/13 03:45:31;;;;;;;4.50;4.10;;;11.00;41.80;;;;;;10441627;28;20239;-75
2021/10/13 03:50:34;;;;;;;5.07;4.67;;;10.90;41.80;;;;;;10440806;28;20244;-75
2021/10/13 03:55:38;;;;;;;4.83;4.43;;;10.90;41.90;;;;;;10439550;28;20570;-75
2021/10/13 04:00:42;;;;;;;7.50;6.80;;;10.80;41.90;;;;;;10441448;28;20239;-75
2021/10/13 04:05:47;;;;;;;6.37;5.77;;;10.80;42.00;;;;;;10440801;28;20229;-75
2021/10/13 04:10:51;;;;;;;7.40;6.07;;;10.80;41.90;;;;;;10438161;28;20221;-75
2021/10/13 04:15:55;;;;;;;5.47;4.97;;;10.70;41.70;;;;;;10436035;28;20224;-74
2021/10/13 04:20:59;;;;;;;4.90;4.50;;;10.70;41.80;;;;;;10441400;28;20247;-75
2021/10/13 04:26:02;;;;;;;6.87;5.87;;;10.70;41.80;;;;;;10438082;28;20232;-75
2021/10/13 04:31:07;;;;;;;8.80;7.90;;;10.60;41.70;;;;;;10439984;28;20232;-74
2021/10/13 04:36:10;;;;;;;9.73;8.77;;;10.60;41.70;;;;;;10446693;28;20225;-75
2021/10/13 04:41:13;;;;;;;11.03;9.93;;;10.50;41.70;;;;;;10452116;28;20233;-75
2021/10/13 04:46:18;;;;;;;8.10;7.30;;;10.40;41.80;;;;;;10444557;28;20221;-75
2021/10/13 04:51:21;;;;;;;8.20;7.33;;;10.40;42.10;;;;;;10453939;28;24870;-74
2021/10/13 04:56:24;;;;;;;8.40;7.60;;;10.40;41.90;;;;;;10443381;28;20239;-75
2021/10/13 05:01:29;;;;;;;7.97;6.83;;;10.40;42.00;;;;;;10445873;28;20229;-74
2021/10/13 05:06:33;;;;;;;8.40;7.60;;;10.40;41.90;;;;;;10447874;28;20231;-75
2021/10/13 05:11:36;;;;;;;7.33;6.63;;;10.30;41.60;;;;;;10445143;28;20229;-75
2021/10/13 05:16:41;;;;;;;7.93;7.13;;;10.30;42.20;;;;;;10441164;28;20786;-75
2021/10/13 05:21:44;;;;;;;7.23;6.23;;;10.30;42.50;;;;;;10440271;28;20228;-74
2021/10/13 05:26:48;;;;;;;6.50;5.90;;;10.30;42.60;;;;;;10440822;28;20221;-74
2021/10/13 05:31:53;;;;;;;8.30;7.60;;;10.30;42.60;;;;;;10442961;28;20624;-75
2021/10/13 05:36:56;;;;;;;7.33;6.63;;;10.40;42.20;;;;;;10438786;28;20239;-75
2021/10/13 05:41:59;;;;;;;5.93;5.43;;;10.30;41.90;;;;;;10441862;28;20236;-75
2021/10/13 05:47:04;;;;;;;9.83;9.03;;;10.30;42.00;;;;;;10432546;28;20303;-75
2021/10/13 05:52:07;;;;;;;7.23;6.63;;;10.20;42.10;;;;;;10447534;28;20721;-75
2021/10/13 05:57:14;;;;;;;5.73;5.23;;;10.20;42.10;;;;;;10438273;28;20755;-75
2021/10/13 06:02:19;;;;;;;5.23;4.83;;;10.10;42.50;;;;;;10437765;28;20745;-75
2021/10/13 06:07:23;;;;;;;7.27;5.73;;;10.00;42.90;;;;;;10441983;28;20233;-74
2021/10/13 06:12:26;;;;;;;8.67;5.40;;;10.00;42.90;;;;;;10442243;28;20278;-75
2021/10/13 06:17:31;;;;;;;23.13;8.93;;;10.10;43.20;;;;;;10434920;28;20240;-76
2021/10/13 06:22:34;;;;;;;19.60;8.53;;;10.20;43.30;;;;;;10443934;28;20225;-75
2021/10/13 06:27:37;;;;;;;30.70;9.20;;;10.20;43.20;;;;;;10442805;28;20220;-77
2021/10/13 06:32:42;;;;;;;17.57;8.80;;;10.30;43.40;;;;;;10426079;28;20232;-75
2021/10/13 06:37:46;;;;;;;12.53;7.30;;;10.40;43.60;;;;;;10431031;28;20225;-75
2021/10/13 06:42:51;;;;;;;8.90;6.50;;;10.50;43.60;;;;;;10442304;28;20251;-76
2021/10/13 06:47:55;;;;;;;6.50;5.73;;;10.50;43.80;;;;;;10441428;28;20654;-75
2021/10/13 06:52:58;;;;;;;6.00;5.43;;;10.70;43.90;;;;;;10434440;28;21110;-76
2021/10/13 06:58:02;;;;;;;5.80;5.30;;;10.70;43.70;;;;;;10436041;28;20220;-75
2021/10/13 07:03:07;;;;;;;5.83;5.33;;;10.80;43.50;;;;;;10443694;28;20232;-75
2021/10/13 07:08:11;;;;;;;6.00;5.40;;;10.80;43.70;;;;;;10431832;28;20229;-75
2021/10/13 07:13:14;;;;;;;5.20;4.70;;;10.90;43.50;;;;;;10433710;28;20232;-76
2021/10/13 07:18:19;;;;;;;5.77;5.27;;;10.90;43.30;;;;;;10440267;28;20717;-75
2021/10/13 07:23:22;;;;;;;5.50;5.10;;;10.90;43.70;;;;;;10439070;28;20242;-75
2021/10/13 07:28:27;;;;;;;5.33;4.93;;;11.00;43.70;;;;;;10443165;28;20235;-75
2021/10/13 07:33:31;;;;;;;7.37;5.37;;;11.00;43.70;;;;;;10434812;28;20231;-75
2021/10/13 07:38:35;;;;;;;6.77;5.27;;;11.10;43.70;;;;;;10425256;28;20226;-75
2021/10/13 07:43:38;;;;;;;5.83;5.23;;;11.10;43.60;;;;;;10437367;28;20295;-75
2021/10/13 07:48:43;;;;;;;5.47;4.97;;;11.20;43.60;;;;;;10431220;28;20242;-74
2021/10/13 07:53:46;;;;;;;5.63;5.13;;;11.20;43.80;;;;;;10438051;28;20221;-76
2021/10/13 07:58:49;;;;;;;5.63;5.03;;;11.30;43.80;;;;;;10441135;28;20227;-75
2021/10/13 08:03:55;;;;;;;5.80;5.17;;;11.40;43.80;;;;;;10435737;28;20701;-75
2021/10/13 08:08:58;;;;;;;7.00;6.03;;;11.50;44.00;;;;;;10445206;28;20232;-76
2021/10/13 08:14:01;;;;;;;6.20;5.60;;;11.60;43.90;;;;;;10449492;28;20696;-74
2021/10/13 08:19:06;;;;;;;5.73;5.20;;;11.60;43.50;;;;;;10447300;28;20276;-76
2021/10/13 08:24:10;;;;;;;5.60;4.90;;;11.60;43.90;;;;;;10444100;28;20312;-75
2021/10/13 08:29:13;;;;;;;6.10;5.47;;;11.60;43.30;;;;;;10444055;28;20607;-75
2021/10/13 08:34:18;;;;;;;6.77;6.17;;;11.60;43.40;;;;;;10445053;28;20260;-75
2021/10/13 08:39:21;;;;;;;5.90;5.40;;;11.50;43.70;;;;;;10435530;28;20693;-76
2021/10/13 08:44:25;;;;;;;6.17;5.60;;;11.40;43.70;;;;;;10441731;28;20229;-75
2021/10/13 08:49:30;;;;;;;5.80;5.13;;;11.40;43.60;;;;;;10439553;28;20235;-75
2021/10/13 08:54:33;;;;;;;6.20;5.73;;;11.40;44.10;;;;;;10439259;28;20225;-75
2021/10/13 08:59:40;;;;;;;6.20;5.70;;;11.50;44.10;;;;;;10445483;28;20613;-77
2021/10/13 09:05:05;;;;;;;6.00;5.50;;;11.50;44.00;;;;;;10447207;28;20314;-76
2021/10/13 09:10:09;;;;;;;5.73;5.23;;;11.50;44.50;;;;;;10437581;28;20236;-78
2021/10/13 09:15:14;;;;;;;6.13;5.00;;;11.60;44.20;;;;;;10445854;28;20243;-75
2021/10/13 09:20:20;;;;;;;4.73;4.33;;;11.60;44.60;;;;;;10445546;28;20752;-74
2021/10/13 09:25:23;;;;;;;5.03;3.60;;;11.80;44.80;;;;;;10443755;28;20709;-77
2021/10/13 09:30:29;;;;;;;4.63;3.90;;;11.90;44.10;;;;;;10441882;28;20229;-77
2021/10/13 09:35:34;;;;;;;3.60;3.30;;;12.10;44.30;;;;;;10443381;28;20844;-76
2021/10/13 09:40:38;;;;;;;3.87;3.47;;;12.30;43.70;;;;;;10444257;28;20231;-79
2021/10/13 09:45:42;;;;;;;4.70;4.30;;;12.50;43.90;;;;;;10439017;28;20235;-78
2021/10/13 09:50:50;;;;;;;4.53;3.90;;;12.70;44.00;;;;;;10442040;28;20224;-74
2021/10/13 09:55:54;;;;;;;4.70;3.80;;;12.90;44.00;;;;;;10434076;28;20237;-77
2021/10/13 10:01:09;;;;;;;4.57;4.17;;;13.00;43.10;;;;;;10434315;28;20257;-75
2021/10/13 10:06:27;;;;;;;5.63;3.87;;;13.10;42.20;;;;;;10437069;28;20228;-75
2021/10/13 10:11:32;;;;;;;4.60;4.20;;;13.10;42.70;;;;;;10436557;28;20256;-76
2021/10/13 10:16:38;;;;;;;4.40;4.00;;;13.10;42.70;;;;;;10438665;28;20747;-77
2021/10/13 10:21:51;;;;;;;4.07;3.67;;;13.10;42.70;;;;;;10441481;28;20229;-74
2021/10/13 10:27:32;;;;;;;4.07;3.70;;;13.10;42.70;;;;;;10435943;28;20235;-76
2021/10/13 10:32:36;;;;;;;4.10;3.70;;;13.10;41.80;;;;;;10437031;28;20213;-75
2021/10/13 10:37:42;;;;;;;5.17;4.50;;;13.10;42.70;;;;;;10438669;28;20231;-78
2021/10/13 10:42:52;;;;;;;3.60;3.30;;;13.20;42.70;;;;;;10443896;28;20663;-76
2021/10/13 10:48:04;;;;;;;4.10;3.20;;;13.30;43.50;;;;;;10447517;28;20229;-77
2021/10/13 10:53:38;;;;;;;4.10;3.13;;;13.40;43.00;;;;;;10470556;27;20570;-73
2021/10/13 10:58:56;;;;;;;3.63;3.00;;;13.60;43.10;;;;;;10418176;28;20216;-74
2021/10/13 11:04:05;;;;;;;3.30;3.00;;;13.80;43.30;;;;;;10419972;28;20228;-74
2021/10/13 11:09:11;;;;;;;4.57;3.10;;;14.00;43.20;;;;;;10419135;28;20213;-73
2021/10/13 11:14:16;;;;;;;4.10;3.40;;;14.20;41.90;;;;;;10421266;28;20225;-74
2021/10/13 11:19:22;;;;;;;3.10;2.80;;;14.20;40.80;;;;;;10416099;28;20661;-74
2021/10/13 11:24:27;;;;;;;2.93;1.80;;;14.20;40.30;;;;;;10415107;28;20319;-75
2021/10/13 11:29:32;;;;;;;1.50;1.40;;;14.10;39.40;;;;;;10415035;28;20709;-74
2021/10/13 11:34:36;;;;;;;1.40;1.30;;;13.90;39.80;;;;;;10419607;28;20822;-77
2021/10/13 11:39:46;;;;;;;1.30;1.20;;;13.80;40.20;;;;;;10412011;28;20599;-74
2021/10/13 11:44:51;;;;;;;1.50;1.27;;;13.70;38.80;;;;;;10398489;28;20225;-73
2021/10/13 11:49:57;;;;;;;1.47;1.20;;;13.80;40.40;;;;;;10404976;28;20243;-75
2021/10/13 11:55:05;;;;;;;1.13;1.00;;;13.80;40.50;;;;;;10413189;28;20226;-74
2021/10/13 12:00:13;;;;;;;1.00;1.00;;;13.90;40.00;;;;;;10401792;28;20222;-74
2021/10/13 12:05:17;;;;;;;0.93;0.93;;;13.90;40.00;;;;;;10382271;28;20726;-74
2021/10/13 12:10:34;;;;;;;1.20;1.10;;;14.00;40.40;;;;;;10380466;28;20217;-74
2021/10/13 12:15:38;;;;;;;1.00;0.90;;;14.00;39.20;;;;;;10372104;28;20952;-73
2021/10/13 12:20:42;;;;;;;1.17;0.80;;;14.10;39.00;;;;;;10374976;28;20843;-74
2021/10/13 12:25:47;;;;;;;1.13;0.70;;;14.10;38.20;;;;;;10370876;28;20233;-74
2021/10/13 12:30:59;;;;;;;0.80;0.80;;;14.00;37.90;;;;;;10375009;28;20230;-74
2021/10/13 12:36:11;;;;;;;0.77;0.77;;;14.10;35.70;;;;;;10372612;28;20244;-74
2021/10/13 12:41:17;;;;;;;0.77;0.77;;;14.00;35.00;;;;;;10371500;28;20222;-73
2021/10/13 12:46:24;;;;;;;1.13;1.00;;;14.00;37.10;;;;;;10376917;28;20233;-78
2021/10/13 12:51:27;;;;;;;0.80;0.80;;;14.10;37.50;;;;;;10379783;28;20236;-77
2021/10/13 12:56:32;;;;;;;1.40;1.07;;;14.10;38.10;;;;;;10381309;28;20977;-77
2021/10/13 13:01:35;;;;;;;1.40;1.10;;;14.20;37.50;;;;;;10380260;28;20226;-78
2021/10/13 13:06:40;;;;;;;1.97;1.00;;;14.20;37.80;;;;;;10376949;28;20589;-79
2021/10/13 13:11:45;;;;;;;1.00;1.00;;;14.20;37.60;;;;;;10378091;28;20234;-78
2021/10/13 13:16:48;;;;;;;1.50;1.40;;;14.20;37.40;;;;;;10377096;28;20226;-73
2021/10/13 13:21:52;;;;;;;1.37;1.20;;;14.10;37.70;;;;;;10370320;28;20222;-73
2021/10/13 13:26:57;;;;;;;1.20;1.10;;;14.00;38.10;;;;;;10380741;28;20960;-79
2021/10/13 13:32:01;;;;;;;2.10;1.20;;;13.80;36.90;;;;;;10377635;28;20740;-80
2021/10/13 13:37:10;;;;;;;1.30;1.20;;;13.70;37.90;;;;;;10379062;28;20683;-79
2021/10/13 13:42:14;;;;;;;1.10;0.90;;;13.70;38.30;;;;;;10389011;28;20710;-81
2021/10/13 13:47:17;;;;;;;0.90;0.90;;;13.60;37.50;;;;;;10385716;28;20225;-79
2021/10/13 13:52:21;;;;;;;1.53;0.90;;;13.70;38.10;;;;;;10388916;28;20230;-79
2021/10/13 13:57:26;;;;;;;1.00;1.00;;;13.80;37.80;;;;;;10393346;28;20221;-79
2021/10/13 14:02:29;;;;;;;1.07;0.90;;;13.80;37.40;;;;;;10400523;28;20232;-79
2021/10/13 14:07:34;;;;;;;1.70;1.00;;;13.80;37.20;;;;;;10399005;28;20233;-79
2021/10/13 14:12:39;;;;;;;1.07;1.00;;;13.80;37.20;;;;;;10392769;28;20713;-79
2021/10/13 14:17:42;;;;;;;1.00;1.00;;;13.70;36.70;;;;;;10395618;28;20233;-79
2021/10/13 14:22:46;;;;;;;2.50;1.00;;;13.80;37.20;;;;;;10399537;28;20284;-79
2021/10/13 14:27:51;;;;;;;1.30;1.20;;;13.70;37.00;;;;;;10396418;28;20230;-79
2021/10/13 14:32:54;;;;;;;1.17;1.00;;;13.70;37.00;;;;;;10391390;28;20223;-74
2021/10/13 14:37:57;;;;;;;1.17;1.13;;;13.80;37.60;;;;;;10387355;28;20233;-74
2021/10/13 14:43:03;;;;;;;1.40;1.30;;;13.80;37.30;;;;;;10384023;28;20305;-79
2021/10/13 14:48:07;;;;;;;1.30;1.20;;;13.80;36.80;;;;;;10394678;28;20221;-73
2021/10/13 14:53:10;;;;;;;2.27;1.73;;;13.80;37.20;;;;;;10394145;28;21174;-79
2021/10/13 14:58:16;;;;;;;1.90;1.30;;;13.90;37.40;;;;;;10395793;28;20233;-80
2021/10/13 15:03:20;;;;;;;2.17;1.30;;;13.80;36.50;;;;;;10386344;28;20826;-73
2021/10/13 15:08:23;;;;;;;1.67;1.40;;;13.80;37.20;;;;;;10393772;28;20248;-73
2021/10/13 15:13:29;;;;;;;1.67;1.50;;;13.80;37.20;;;;;;10381334;28;20221;-73
2021/10/13 15:18:33;;;;;;;2.33;2.10;;;13.80;37.20;;;;;;10383285;28;20218;-80
2021/10/13 15:23:36;;;;;;;4.00;2.70;;;13.80;37.60;;;;;;10388316;28;20233;-80
2021/10/13 15:28:40;;;;;;;3.20;2.20;;;13.90;38.00;;;;;;10390460;28;20226;-80
2021/10/13 15:33:47;;;;;;;1.83;1.73;;;14.00;37.80;;;;;;10393245;28;20296;-79
2021/10/13 15:38:50;;;;;;;2.43;2.03;;;14.00;38.20;;;;;;10402829;28;20708;-80
2021/10/13 15:43:55;;;;;;;2.57;2.10;;;14.10;38.20;;;;;;10400970;28;20234;-80
2021/10/13 15:48:58;;;;;;;2.60;1.87;;;14.20;38.10;;;;;;10403437;28;20225;-80
2021/10/13 15:54:01;;;;;;;2.17;1.93;;;14.20;38.30;;;;;;10398405;28;20258;-73
2021/10/13 15:59:06;;;;;;;2.60;1.83;;;14.20;38.40;;;;;;10390413;28;20232;-73
2021/10/13 16:04:10;;;;;;;3.63;3.33;;;14.20;38.20;;;;;;10384593;28;20644;-73
2021/10/13 16:09:13;;;;;;;2.73;2.03;;;14.20;38.10;;;;;;10383499;28;20236;-73
2021/10/13 16:14:20;;;;;;;4.60;2.20;;;14.20;37.80;;;;;;10385496;28;20237;-73
2021/10/13 16:19:24;;;;;;;2.53;2.17;;;14.20;37.60;;;;;;10383314;28;20299;-73
2021/10/13 16:24:27;;;;;;;6.83;6.10;;;14.10;37.60;;;;;;10392360;28;20572;-80
2021/10/13 16:29:31;;;;;;;8.53;7.23;;;14.10;37.60;;;;;;10388098;28;20711;-80
2021/10/13 16:34:37;;;;;;;6.77;6.17;;;14.00;37.40;;;;;;10386373;28;20237;-72
2021/10/13 16:39:40;;;;;;;5.03;4.63;;;13.90;37.30;;;;;;10388872;28;20594;-73
2021/10/13 16:44:45;;;;;;;4.27;3.87;;;13.90;37.30;;;;;;10392365;28;20237;-73
2021/10/13 16:49:48;;;;;;;6.20;5.70;;;13.80;36.70;;;;;;10386536;28;20729;-73
2021/10/13 16:54:51;;;;;;;6.60;6.03;;;13.70;37.10;;;;;;10394642;28;20229;-79
2021/10/13 16:59:56;;;;;;;3.20;2.80;;;13.60;37.00;;;;;;10397617;28;20602;-78
2021/10/13 17:04:59;;;;;;;6.37;5.87;;;13.60;37.00;;;;;;10396102;28;20721;-79
2021/10/13 17:10:03;;;;;;;4.33;4.00;;;13.50;37.10;;;;;;10390123;28;20221;-79
2021/10/13 17:15:09;;;;;;;2.20;2.00;;;13.40;37.00;;;;;;10390244;28;20225;-79
2021/10/13 17:20:13;;;;;;;1.80;1.60;;;13.30;36.80;;;;;;10387383;28;20709;-79
2021/10/13 17:25:16;;;;;;;2.13;1.90;;;13.30;37.30;;;;;;10386305;28;20595;-79
2021/10/13 17:30:20;;;;;;;3.17;2.10;;;13.10;37.30;;;;;;10388829;28;20220;-80
2021/10/13 17:35:24;;;;;;;3.47;2.33;;;13.10;37.70;;;;;;10390780;28;20236;-80
2021/10/13 17:40:27;;;;;;;2.80;2.60;;;13.00;37.60;;;;;;10384364;28;20225;-79
2021/10/13 17:45:32;;;;;;;2.67;2.47;;;13.00;37.80;;;;;;10386182;28;20243;-79
2021/10/13 17:50:35;;;;;;;6.80;6.00;;;12.90;37.50;;;;;;10381861;28;20225;-79
2021/10/13 17:55:38;;;;;;;5.00;4.50;;;12.80;37.50;;;;;;10386829;28;20234;-79
2021/10/13 18:00:43;;;;;;;4.03;3.67;;;12.70;37.50;;;;;;10383710;28;20782;-79
2021/10/13 18:05:46;;;;;;;4.60;4.20;;;12.60;37.50;;;;;;10384228;28;20751;-79
2021/10/13 18:10:50;;;;;;;3.60;3.30;;;12.50;37.70;;;;;;10376431;28;20236;-79
2021/10/13 18:15:54;;;;;;;3.23;2.93;;;12.40;37.90;;;;;;10385877;28;20711;-79
2021/10/13 18:20:58;;;;;;;3.50;3.10;;;12.30;38.00;;;;;;10375984;28;20617;-78
2021/10/13 18:26:01;;;;;;;3.10;2.60;;;12.20;38.10;;;;;;10377819;28;20233;-79
2021/10/13 18:31:06;;;;;;;2.53;1.80;;;12.20;38.40;;;;;;10371149;28;20242;-78
2021/10/13 18:36:09;;;;;;;1.70;1.60;;;12.30;38.40;;;;;;10375092;28;20253;-79
2021/10/13 18:41:12;;;;;;;2.30;2.17;;;12.30;38.50;;;;;;10372558;28;20696;-78
2021/10/13 18:46:17;;;;;;;4.50;4.10;;;12.30;38.60;;;;;;10373357;28;20236;-79
2021/10/13 18:51:21;;;;;;;4.70;4.07;;;12.30;38.50;;;;;;10371877;28;20224;-74
2021/10/13 19:01:50;;;;;;;3.80;3.40;;;12.20;38.40;;;;;;10382651;28;20226;-73
2021/10/13 19:06:54;;;;;;;3.20;2.37;;;12.10;38.40;;;;;;10370965;28;20226;-74
2021/10/13 19:12:01;;;;;;;2.17;2.03;;;12.10;38.40;;;;;;10326754;28;20229;-78
2021/10/13 19:17:07;;;;;;;2.70;2.50;;;12.10;38.40;;;;;;10350130;28;20427;-78
2021/10/13 19:22:12;;;;;;;5.50;5.00;;;12.10;38.30;;;;;;10358828;28;20222;-77
2021/10/13 19:27:16;;;;;;;3.70;3.00;;;12.00;38.10;;;;;;10349620;28;20234;-79
2021/10/13 19:32:21;;;;;;;2.47;2.27;;;11.90;38.10;;;;;;10348048;28;20222;-78
2021/10/13 19:37:24;;;;;;;2.57;1.93;;;11.70;38.80;;;;;;10353354;28;20972;-77
2021/10/13 19:42:28;;;;;;;1.70;1.60;;;11.60;38.90;;;;;;10345967;28;20222;-78
2021/10/13 19:47:34;;;;;;;2.20;2.10;;;11.50;38.40;;;;;;10345081;28;20719;-78
2021/10/13 19:52:37;;;;;;;2.53;2.33;;;11.40;38.40;;;;;;10349920;28;20244;-78
2021/10/13 19:57:41;;;;;;;2.70;2.50;;;11.30;38.20;;;;;;10345647;28;20230;-78
2021/10/13 20:02:45;;;;;;;4.87;2.30;;;11.20;38.60;;;;;;10345779;28;20234;-77
2021/10/13 20:07:49;;;;;;;2.70;2.50;;;11.10;38.60;;;;;;10338082;28;20234;-77
2021/10/13 20:12:52;;;;;;;2.40;2.30;;;11.10;38.40;;;;;;10330942;28;20238;-72
2021/10/13 20:17:57;;;;;;;3.77;3.47;;;11.10;38.40;;;;;;10337010;28;20362;-72
2021/10/13 20:23:00;;;;;;;6.00;5.40;;;11.10;38.40;;;;;;10360648;28;20229;-78
2021/10/13 20:28:04;;;;;;;6.20;5.60;;;11.10;38.30;;;;;;10314369;28;20254;-78
2021/10/13 20:33:09;;;;;;;5.27;4.87;;;11.00;38.10;;;;;;10302101;28;20722;-78
2021/10/13 20:38:12;;;;;;;5.67;5.17;;;11.00;38.20;;;;;;10333490;28;20593;-78
2021/10/13 20:43:16;;;;;;;5.60;5.20;;;10.90;38.20;;;;;;10338492;28;20907;-73
2021/10/13 20:48:21;;;;;;;6.00;5.50;;;10.90;38.20;;;;;;10337437;28;20250;-73
2021/10/13 20:53:25;;;;;;;5.77;4.80;;;10.80;38.00;;;;;;10343158;28;20230;-77
2021/10/13 20:58:28;;;;;;;5.53;5.03;;;10.80;38.10;;;;;;10336866;28;20226;-78
2021/10/13 21:03:32;;;;;;;5.53;4.33;;;10.70;38.20;;;;;;10340038;28;20242;-78
2021/10/13 21:08:36;;;;;;;5.97;5.37;;;10.70;38.20;;;;;;10340256;28;20223;-75
2021/10/13 21:13:39;;;;;;;5.60;4.87;;;10.60;38.20;;;;;;10336602;28;20230;-72
2021/10/13 21:18:43;;;;;;;3.93;3.60;;;10.60;38.30;;;;;;10347793;28;20230;-73
2021/10/13 21:23:46;;;;;;;4.83;4.03;;;10.50;38.30;;;;;;10344743;28;20234;-73
2021/10/13 21:28:50;;;;;;;4.17;3.73;;;10.40;38.40;;;;;;10345535;28;20753;-73
2021/10/13 21:33:54;;;;;;;4.17;3.77;;;10.40;38.50;;;;;;10363997;28;20226;-73
2021/10/13 21:38:57;;;;;;;4.83;4.20;;;10.40;38.70;;;;;;10346145;28;20218;-74
2021/10/13 21:44:01;;;;;;;4.33;3.40;;;10.40;38.70;;;;;;10343010;28;20817;-73
2021/10/13 21:49:05;;;;;;;7.60;3.43;;;10.40;38.70;;;;;;10310399;28;20234;-73
2021/10/13 21:54:10;;;;;;;4.37;3.30;;;10.30;38.70;;;;;;10343566;28;20691;-74
2021/10/13 21:59:13;;;;;;;5.00;3.70;;;10.40;38.80;;;;;;10346974;28;20231;-73
2021/10/13 22:04:18;;;;;;;3.60;3.30;;;10.30;38.50;;;;;;10341429;28;20734;-73
2021/10/13 22:09:22;;;;;;;3.40;3.13;;;10.20;38.60;;;;;;10365344;28;20235;-73
2021/10/13 22:14:25;;;;;;;3.73;3.43;;;10.20;38.60;;;;;;10335715;28;20589;-72
2021/10/13 22:19:30;;;;;;;3.87;3.47;;;10.10;38.60;;;;;;10339477;28;20239;-73
2021/10/13 22:24:34;;;;;;;3.93;3.53;;;10.10;38.80;;;;;;10341823;28;20238;-73
2021/10/13 22:29:37;;;;;;;3.57;3.27;;;10.10;38.80;;;;;;10340496;28;20229;-73
2021/10/13 22:34:45;;;;;;;3.67;3.27;;;10.00;38.70;;;;;;10341384;28;20601;-73
2021/10/13 22:39:48;;;;;;;3.57;3.27;;;9.90;39.60;;;;;;10340451;28;20246;-73
2021/10/13 22:44:51;;;;;;;5.17;3.37;;;9.90;39.50;;;;;;10342422;28;20464;-73
2021/10/13 22:49:56;;;;;;;3.53;3.30;;;9.90;40.30;;;;;;10342501;28;20237;-71
2021/10/13 22:55:03;;;;;;;3.47;3.17;;;9.80;39.80;;;;;;10342712;28;20231;-72
2021/10/13 23:00:07;;;;;;;3.43;3.13;;;9.80;39.80;;;;;;10343995;28;20309;-71
2021/10/13 23:05:12;;;;;;;4.80;3.20;;;9.70;39.80;;;;;;10369351;23;20229;-72
2021/10/13 23:10:15;;;;;;;4.80;3.27;;;9.70;40.00;;;;;;10377015;28;20745;-72
2021/10/13 23:15:18;;;;;;;4.47;3.53;;;9.60;39.80;;;;;;10380555;28;20589;-71
2021/10/13 23:20:23;;;;;;;3.63;3.33;;;9.50;40.00;;;;;;10385350;28;20233;-72
2021/10/13 23:25:26;;;;;;;3.37;3.03;;;9.50;40.40;;;;;;10372581;28;20351;-71
2021/10/13 23:30:30;;;;;;;3.90;3.60;;;9.50;40.30;;;;;;10377266;28;20295;-71
2021/10/13 23:35:34;;;;;;;4.23;3.30;;;9.50;40.40;;;;;;10376516;28;20230;-72
2021/10/13 23:40:37;;;;;;;3.27;2.97;;;9.50;40.40;;;;;;10377765;28;20229;-72
2021/10/13 23:45:40;;;;;;;3.80;3.50;;;9.50;40.10;;;;;;10377633;28;20321;-72
2021/10/13 23:50:45;;;;;;;3.67;3.37;;;9.50;40.10;;;;;;10377686;28;20713;-71
2021/10/13 23:55:48;;;;;;;5.27;3.47;;;9.40;40.30;;;;;;10378126;28;20745;-71
